Google Maps JavaScript API Example
Pilot Flight Report # 93102 Submitted by : AST775 on 2019-07-11
Date: 2019-07-11Aircraft: Howard 500
Flight No.: Not AvailableDistance (Nm): 361.95
Departure: SBMN - Ponta PeladaDestination: SBBV - Boa Vista International
 TimeFuelWeightSpeeds  
Out (Taxi)1009Z5364 lbs29664 lbs Flight RulesVFR
Off (Takeoff)1010Z 29655 lbs90 ktsFlight Level15000
On (Landing)1125Z 26569 lbs91 ktsVSTD2 ft/min
In (Ramp)1125Z2268 lbs26569 lbs ZFW24300 lbs
Flight1.30  -  1:153090 lbs  Pax0
Block1.27  -  1:163096 lbs  Cargo0
Departure WeatherSWHT 101009Z 17502KT 23SM +RA SKC 22/10 A2991
Destination WeatherSBBV 101125Z 13000KT 43SM +RA SKC 26/22 A2991
Flight CommentsLeg 7 - SBMN - SBBV